sensor_id;sensor_type;location;lat;lon;timestamp;P1;durP1;ratioP1;P2;durP2;ratioP2
54539;SDS011;40438;52.992;18.604;2023-03-01T00:00:48;27.42;;;13.95;;
54539;SDS011;40438;52.992;18.604;2023-03-01T00:03:14;25.65;;;13.70;;
54539;SDS011;40438;52.992;18.604;2023-03-01T00:05:43;23.77;;;13.65;;
54539;SDS011;40438;52.992;18.604;2023-03-01T00:08:09;25.98;;;12.55;;
54539;SDS011;40438;52.992;18.604;2023-03-01T00:10:35;30.13;;;13.60;;
54539;SDS011;40438;52.992;18.604;2023-03-01T00:13:01;23.35;;;13.05;;
54539;SDS011;40438;52.992;18.604;2023-03-01T00:15:26;21.92;;;12.32;;
54539;SDS011;40438;52.992;18.604;2023-03-01T00:17:53;25.35;;;13.50;;
54539;SDS011;40438;52.992;18.604;2023-03-01T00:20:19;26.90;;;12.95;;
54539;SDS011;40438;52.992;18.604;2023-03-01T00:22:45;23.92;;;13.48;;
54539;SDS011;40438;52.992;18.604;2023-03-01T00:25:11;22.23;;;12.38;;
54539;SDS011;40438;52.992;18.604;2023-03-01T00:27:36;24.75;;;12.95;;
54539;SDS011;40438;52.992;18.604;2023-03-01T00:30:02;27.08;;;12.75;;
54539;SDS011;40438;52.992;18.604;2023-03-01T00:32:28;23.48;;;12.55;;
54539;SDS011;40438;52.992;18.604;2023-03-01T00:34:56;24.08;;;12.90;;
54539;SDS011;40438;52.992;18.604;2023-03-01T00:37:22;24.85;;;12.52;;
54539;SDS011;40438;52.992;18.604;2023-03-01T00:39:48;24.63;;;12.98;;
54539;SDS011;40438;52.992;18.604;2023-03-01T00:42:14;22.10;;;12.18;;
54539;SDS011;40438;52.992;18.604;2023-03-01T00:44:40;22.30;;;11.85;;
54539;SDS011;40438;52.992;18.604;2023-03-01T00:47:06;27.70;;;12.55;;
54539;SDS011;40438;52.992;18.604;2023-03-01T00:49:31;24.00;;;11.88;;
54539;SDS011;40438;52.992;18.604;2023-03-01T00:51:59;23.70;;;12.35;;
54539;SDS011;40438;52.992;18.604;2023-03-01T00:54:24;22.40;;;12.07;;
54539;SDS011;40438;52.992;18.604;2023-03-01T00:56:50;23.35;;;11.90;;
54539;SDS011;40438;52.992;18.604;2023-03-01T00:59:16;24.73;;;12.15;;
54539;SDS011;40438;52.992;18.604;2023-03-01T01:01:42;22.52;;;11.85;;
54539;SDS011;40438;52.992;18.604;2023-03-01T01:04:09;20.27;;;10.93;;
54539;SDS011;40438;52.992;18.604;2023-03-01T01:06:38;24.33;;;11.82;;
54539;SDS011;40438;52.992;18.604;2023-03-01T01:09:06;23.17;;;12.27;;
54539;SDS011;40438;52.992;18.604;2023-03-01T01:11:33;23.33;;;12.27;;
54539;SDS011;40438;52.992;18.604;2023-03-01T01:14:00;25.67;;;11.63;;
54539;SDS011;40438;52.992;18.604;2023-03-01T01:16:26;21.20;;;10.98;;
54539;SDS011;40438;52.992;18.604;2023-03-01T01:18:52;21.13;;;11.18;;
54539;SDS011;40438;52.992;18.604;2023-03-01T01:21:19;22.70;;;11.15;;
54539;SDS011;40438;52.992;18.604;2023-03-01T01:23:46;23.13;;;10.93;;
54539;SDS011;40438;52.992;18.604;2023-03-01T01:26:15;20.25;;;10.80;;
54539;SDS011;40438;52.992;18.604;2023-03-01T01:28:42;22.25;;;11.45;;
54539;SDS011;40438;52.992;18.604;2023-03-01T01:31:08;21.65;;;10.90;;
54539;SDS011;40438;52.992;18.604;2023-03-01T01:33:34;22.08;;;10.57;;
54539;SDS011;40438;52.992;18.604;2023-03-01T01:36:00;21.45;;;11.75;;
54539;SDS011;40438;52.992;18.604;2023-03-01T01:38:25;23.05;;;11.95;;
54539;SDS011;40438;52.992;18.604;2023-03-01T01:40:51;19.83;;;10.32;;
54539;SDS011;40438;52.992;18.604;2023-03-01T01:43:20;23.70;;;10.70;;
54539;SDS011;40438;52.992;18.604;2023-03-01T01:45:47;19.63;;;11.32;;
54539;SDS011;40438;52.992;18.604;2023-03-01T01:48:14;21.80;;;11.27;;
54539;SDS011;40438;52.992;18.604;2023-03-01T01:50:43;17.67;;;10.05;;
54539;SDS011;40438;52.992;18.604;2023-03-01T01:53:10;20.90;;;10.35;;
54539;SDS011;40438;52.992;18.604;2023-03-01T01:55:41;20.55;;;10.25;;
54539;SDS011;40438;52.992;18.604;2023-03-01T01:58:09;18.20;;;9.63;;
54539;SDS011;40438;52.992;18.604;2023-03-01T02:00:39;21.88;;;10.60;;
54539;SDS011;40438;52.992;18.604;2023-03-01T02:03:07;21.13;;;10.52;;
54539;SDS011;40438;52.992;18.604;2023-03-01T02:05:36;19.00;;;10.38;;
54539;SDS011;40438;52.992;18.604;2023-03-01T02:08:07;21.02;;;9.68;;
54539;SDS011;40438;52.992;18.604;2023-03-01T02:10:36;19.10;;;10.10;;
54539;SDS011;40438;52.992;18.604;2023-03-01T02:13:03;19.08;;;10.00;;
54539;SDS011;40438;52.992;18.604;2023-03-01T02:15:31;19.38;;;10.32;;
54539;SDS011;40438;52.992;18.604;2023-03-01T02:17:59;21.67;;;10.15;;
54539;SDS011;40438;52.992;18.604;2023-03-01T02:20:27;22.92;;;10.35;;
54539;SDS011;40438;52.992;18.604;2023-03-01T02:22:58;20.33;;;9.60;;
54539;SDS011;40438;52.992;18.604;2023-03-01T02:25:28;20.27;;;9.52;;
54539;SDS011;40438;52.992;18.604;2023-03-01T02:28:02;20.58;;;10.68;;
54539;SDS011;40438;52.992;18.604;2023-03-01T02:30:35;19.83;;;9.68;;
54539;SDS011;40438;52.992;18.604;2023-03-01T02:33:02;18.52;;;9.63;;
54539;SDS011;40438;52.992;18.604;2023-03-01T02:35:29;17.23;;;9.40;;
54539;SDS011;40438;52.992;18.604;2023-03-01T02:37:59;19.65;;;10.90;;
54539;SDS011;40438;52.992;18.604;2023-03-01T02:40:26;21.92;;;9.98;;
54539;SDS011;40438;52.992;18.604;2023-03-01T02:42:54;17.75;;;9.55;;
54539;SDS011;40438;52.992;18.604;2023-03-01T02:45:22;23.25;;;9.80;;
54539;SDS011;40438;52.992;18.604;2023-03-01T02:47:50;19.80;;;10.20;;
54539;SDS011;40438;52.992;18.604;2023-03-01T02:50:22;20.75;;;10.02;;
54539;SDS011;40438;52.992;18.604;2023-03-01T02:53:05;18.80;;;9.40;;
54539;SDS011;40438;52.992;18.604;2023-03-01T02:55:36;17.52;;;8.90;;
54539;SDS011;40438;52.992;18.604;2023-03-01T02:58:02;19.88;;;9.77;;
54539;SDS011;40438;52.992;18.604;2023-03-01T03:00:30;17.77;;;9.15;;
54539;SDS011;40438;52.992;18.604;2023-03-01T03:03:02;17.60;;;8.98;;
54539;SDS011;40438;52.992;18.604;2023-03-01T03:05:28;17.88;;;8.95;;
54539;SDS011;40438;52.992;18.604;2023-03-01T03:07:57;20.27;;;9.63;;
54539;SDS011;40438;52.992;18.604;2023-03-01T03:10:25;17.90;;;9.52;;
54539;SDS011;40438;52.992;18.604;2023-03-01T03:12:53;18.90;;;9.50;;
54539;SDS011;40438;52.992;18.604;2023-03-01T03:15:20;17.77;;;9.27;;
54539;SDS011;40438;52.992;18.604;2023-03-01T03:17:47;18.45;;;9.23;;
54539;SDS011;40438;52.992;18.604;2023-03-01T03:20:15;16.98;;;9.40;;
54539;SDS011;40438;52.992;18.604;2023-03-01T03:22:42;18.98;;;9.80;;
54539;SDS011;40438;52.992;18.604;2023-03-01T03:25:08;20.27;;;10.00;;
54539;SDS011;40438;52.992;18.604;2023-03-01T03:27:34;20.52;;;9.63;;
54539;SDS011;40438;52.992;18.604;2023-03-01T03:30:00;18.58;;;9.80;;
54539;SDS011;40438;52.992;18.604;2023-03-01T03:32:25;19.42;;;9.43;;
54539;SDS011;40438;52.992;18.604;2023-03-01T03:34:51;18.20;;;9.43;;
54539;SDS011;40438;52.992;18.604;2023-03-01T03:37:18;21.40;;;10.48;;
54539;SDS011;40438;52.992;18.604;2023-03-01T03:39:44;19.77;;;9.70;;
54539;SDS011;40438;52.992;18.604;2023-03-01T03:42:10;18.52;;;9.68;;
54539;SDS011;40438;52.992;18.604;2023-03-01T03:44:36;18.48;;;9.20;;
54539;SDS011;40438;52.992;18.604;2023-03-01T03:47:01;20.25;;;9.13;;
54539;SDS011;40438;52.992;18.604;2023-03-01T03:49:27;18.20;;;9.75;;
54539;SDS011;40438;52.992;18.604;2023-03-01T03:51:53;19.13;;;9.57;;
54539;SDS011;40438;52.992;18.604;2023-03-01T03:54:20;19.98;;;9.23;;
54539;SDS011;40438;52.992;18.604;2023-03-01T03:56:46;19.38;;;9.95;;
54539;SDS011;40438;52.992;18.604;2023-03-01T03:59:11;18.98;;;9.10;;
54539;SDS011;40438;52.992;18.604;2023-03-01T04:01:37;16.73;;;8.88;;
54539;SDS011;40438;52.992;18.604;2023-03-01T04:04:03;19.05;;;9.60;;
54539;SDS011;40438;52.992;18.604;2023-03-01T04:06:29;24.30;;;8.68;;
54539;SDS011;40438;52.992;18.604;2023-03-01T04:08:55;18.73;;;8.85;;
54539;SDS011;40438;52.992;18.604;2023-03-01T04:11:22;16.67;;;8.60;;
54539;SDS011;40438;52.992;18.604;2023-03-01T04:13:48;16.63;;;8.70;;
54539;SDS011;40438;52.992;18.604;2023-03-01T04:16:14;16.90;;;8.70;;
54539;SDS011;40438;52.992;18.604;2023-03-01T04:18:40;18.58;;;9.38;;
54539;SDS011;40438;52.992;18.604;2023-03-01T04:21:06;17.83;;;8.85;;
54539;SDS011;40438;52.992;18.604;2023-03-01T04:23:31;14.85;;;8.90;;
54539;SDS011;40438;52.992;18.604;2023-03-01T04:25:58;16.83;;;8.85;;
54539;SDS011;40438;52.992;18.604;2023-03-01T04:28:26;17.77;;;9.10;;
54539;SDS011;40438;52.992;18.604;2023-03-01T04:30:54;20.63;;;9.35;;
54539;SDS011;40438;52.992;18.604;2023-03-01T04:33:21;20.60;;;9.52;;
54539;SDS011;40438;52.992;18.604;2023-03-01T04:35:47;17.35;;;9.57;;
54539;SDS011;40438;52.992;18.604;2023-03-01T04:38:13;17.40;;;9.57;;
54539;SDS011;40438;52.992;18.604;2023-03-01T04:40:39;18.00;;;8.95;;
54539;SDS011;40438;52.992;18.604;2023-03-01T04:43:05;14.13;;;8.45;;
54539;SDS011;40438;52.992;18.604;2023-03-01T04:45:33;16.75;;;8.90;;
54539;SDS011;40438;52.992;18.604;2023-03-01T04:47:58;18.65;;;8.85;;
54539;SDS011;40438;52.992;18.604;2023-03-01T04:50:24;19.58;;;9.95;;
54539;SDS011;40438;52.992;18.604;2023-03-01T04:52:50;14.75;;;8.95;;
54539;SDS011;40438;52.992;18.604;2023-03-01T04:55:16;18.45;;;9.32;;
54539;SDS011;40438;52.992;18.604;2023-03-01T04:57:42;16.88;;;8.98;;
54539;SDS011;40438;52.992;18.604;2023-03-01T05:00:09;15.30;;;8.73;;
54539;SDS011;40438;52.992;18.604;2023-03-01T05:02:37;18.15;;;9.38;;
54539;SDS011;40438;52.992;18.604;2023-03-01T05:05:03;17.90;;;8.43;;
54539;SDS011;40438;52.992;18.604;2023-03-01T05:07:29;18.88;;;9.90;;
54539;SDS011;40438;52.992;18.604;2023-03-01T05:09:55;16.83;;;8.77;;
54539;SDS011;40438;52.992;18.604;2023-03-01T05:12:21;17.15;;;9.45;;
54539;SDS011;40438;52.992;18.604;2023-03-01T05:14:47;19.25;;;8.77;;
54539;SDS011;40438;52.992;18.604;2023-03-01T05:17:12;19.88;;;9.63;;
54539;SDS011;40438;52.992;18.604;2023-03-01T05:19:39;14.43;;;8.73;;
54539;SDS011;40438;52.992;18.604;2023-03-01T05:22:05;16.05;;;8.80;;
54539;SDS011;40438;52.992;18.604;2023-03-01T05:24:32;15.02;;;8.73;;
54539;SDS011;40438;52.992;18.604;2023-03-01T05:26:59;16.05;;;8.55;;
54539;SDS011;40438;52.992;18.604;2023-03-01T05:29:26;16.38;;;8.80;;
54539;SDS011;40438;52.992;18.604;2023-03-01T05:31:54;16.20;;;8.60;;
54539;SDS011;40438;52.992;18.604;2023-03-01T05:34:22;16.45;;;9.32;;
54539;SDS011;40438;52.992;18.604;2023-03-01T05:36:50;18.48;;;8.95;;
54539;SDS011;40438;52.992;18.604;2023-03-01T05:39:16;16.25;;;9.25;;
54539;SDS011;40438;52.992;18.604;2023-03-01T05:41:41;16.13;;;8.80;;
54539;SDS011;40438;52.992;18.604;2023-03-01T05:44:07;15.18;;;8.32;;
54539;SDS011;40438;52.992;18.604;2023-03-01T05:46:33;16.52;;;8.75;;
54539;SDS011;40438;52.992;18.604;2023-03-01T05:48:59;15.77;;;9.00;;
54539;SDS011;40438;52.992;18.604;2023-03-01T05:51:24;17.67;;;8.55;;
54539;SDS011;40438;52.992;18.604;2023-03-01T05:53:52;17.58;;;8.52;;
54539;SDS011;40438;52.992;18.604;2023-03-01T05:56:17;17.52;;;8.75;;
54539;SDS011;40438;52.992;18.604;2023-03-01T05:58:43;17.85;;;9.35;;
54539;SDS011;40438;52.992;18.604;2023-03-01T06:01:10;14.88;;;8.65;;
54539;SDS011;40438;52.992;18.604;2023-03-01T06:03:37;17.23;;;7.97;;
54539;SDS011;40438;52.992;18.604;2023-03-01T06:06:03;16.13;;;8.90;;
54539;SDS011;40438;52.992;18.604;2023-03-01T06:08:29;17.98;;;8.73;;
54539;SDS011;40438;52.992;18.604;2023-03-01T06:10:56;22.10;;;8.98;;
54539;SDS011;40438;52.992;18.604;2023-03-01T06:13:22;21.90;;;9.13;;
54539;SDS011;40438;52.992;18.604;2023-03-01T06:15:47;18.05;;;8.60;;
54539;SDS011;40438;52.992;18.604;2023-03-01T06:18:13;17.08;;;8.75;;
54539;SDS011;40438;52.992;18.604;2023-03-01T06:20:39;15.80;;;8.68;;
54539;SDS011;40438;52.992;18.604;2023-03-01T06:23:05;16.00;;;8.77;;
54539;SDS011;40438;52.992;18.604;2023-03-01T06:25:31;14.75;;;8.55;;
54539;SDS011;40438;52.992;18.604;2023-03-01T06:27:59;15.60;;;8.55;;
54539;SDS011;40438;52.992;18.604;2023-03-01T06:30:25;17.65;;;8.40;;
54539;SDS011;40438;52.992;18.604;2023-03-01T06:32:51;15.57;;;8.90;;
54539;SDS011;40438;52.992;18.604;2023-03-01T06:35:18;15.45;;;7.97;;
54539;SDS011;40438;52.992;18.604;2023-03-01T06:37:44;14.82;;;8.13;;
54539;SDS011;40438;52.992;18.604;2023-03-01T06:40:11;18.98;;;8.63;;
54539;SDS011;40438;52.992;18.604;2023-03-01T06:42:38;16.25;;;8.07;;
54539;SDS011;40438;52.992;18.604;2023-03-01T06:45:07;16.13;;;8.40;;
54539;SDS011;40438;52.992;18.604;2023-03-01T06:47:34;17.05;;;8.07;;
54539;SDS011;40438;52.992;18.604;2023-03-01T06:50:00;16.42;;;8.07;;
54539;SDS011;40438;52.992;18.604;2023-03-01T06:52:26;13.80;;;7.85;;
54539;SDS011;40438;52.992;18.604;2023-03-01T06:54:51;15.07;;;8.38;;
54539;SDS011;40438;52.992;18.604;2023-03-01T06:57:17;13.85;;;8.05;;
54539;SDS011;40438;52.992;18.604;2023-03-01T06:59:43;14.98;;;8.43;;
54539;SDS011;40438;52.992;18.604;2023-03-01T07:02:11;15.75;;;7.57;;
54539;SDS011;40438;52.992;18.604;2023-03-01T07:04:37;16.65;;;8.50;;
54539;SDS011;40438;52.992;18.604;2023-03-01T07:07:03;17.08;;;8.88;;
54539;SDS011;40438;52.992;18.604;2023-03-01T07:09:29;13.10;;;7.88;;
54539;SDS011;40438;52.992;18.604;2023-03-01T07:11:55;13.38;;;7.40;;
54539;SDS011;40438;52.992;18.604;2023-03-01T07:14:21;16.52;;;8.30;;
54539;SDS011;40438;52.992;18.604;2023-03-01T07:16:47;15.95;;;8.23;;
54539;SDS011;40438;52.992;18.604;2023-03-01T07:19:14;15.40;;;8.52;;
54539;SDS011;40438;52.992;18.604;2023-03-01T07:21:40;16.45;;;8.73;;
54539;SDS011;40438;52.992;18.604;2023-03-01T07:24:06;14.27;;;7.38;;
54539;SDS011;40438;52.992;18.604;2023-03-01T07:26:34;17.02;;;8.32;;
54539;SDS011;40438;52.992;18.604;2023-03-01T07:29:00;13.68;;;7.85;;
54539;SDS011;40438;52.992;18.604;2023-03-01T07:31:27;19.20;;;8.82;;
54539;SDS011;40438;52.992;18.604;2023-03-01T07:33:53;15.95;;;8.57;;
54539;SDS011;40438;52.992;18.604;2023-03-01T07:36:20;13.90;;;7.60;;
54539;SDS011;40438;52.992;18.604;2023-03-01T07:38:46;14.13;;;7.65;;
54539;SDS011;40438;52.992;18.604;2023-03-01T07:41:12;14.95;;;7.32;;
54539;SDS011;40438;52.992;18.604;2023-03-01T07:43:38;14.85;;;7.40;;
54539;SDS011;40438;52.992;18.604;2023-03-01T07:46:04;13.07;;;7.60;;
54539;SDS011;40438;52.992;18.604;2023-03-01T07:48:30;16.13;;;7.57;;
54539;SDS011;40438;52.992;18.604;2023-03-01T07:50:57;15.15;;;7.88;;
54539;SDS011;40438;52.992;18.604;2023-03-01T07:53:24;15.43;;;7.68;;
54539;SDS011;40438;52.992;18.604;2023-03-01T07:55:52;14.43;;;7.90;;
54539;SDS011;40438;52.992;18.604;2023-03-01T07:58:25;15.93;;;8.20;;
54539;SDS011;40438;52.992;18.604;2023-03-01T08:00:51;13.07;;;7.40;;
54539;SDS011;40438;52.992;18.604;2023-03-01T08:03:17;15.77;;;7.43;;
54539;SDS011;40438;52.992;18.604;2023-03-01T08:05:43;13.98;;;7.35;;
54539;SDS011;40438;52.992;18.604;2023-03-01T08:08:08;13.27;;;7.53;;
54539;SDS011;40438;52.992;18.604;2023-03-01T08:10:35;13.07;;;7.68;;
54539;SDS011;40438;52.992;18.604;2023-03-01T08:13:01;14.07;;;7.10;;
54539;SDS011;40438;52.992;18.604;2023-03-01T08:15:27;13.65;;;7.60;;
54539;SDS011;40438;52.992;18.604;2023-03-01T08:17:53;15.95;;;7.72;;
54539;SDS011;40438;52.992;18.604;2023-03-01T08:20:19;13.57;;;7.00;;
54539;SDS011;40438;52.992;18.604;2023-03-01T08:22:45;14.95;;;8.07;;
54539;SDS011;40438;52.992;18.604;2023-03-01T08:25:11;14.10;;;7.13;;
54539;SDS011;40438;52.992;18.604;2023-03-01T08:27:38;15.85;;;7.82;;
54539;SDS011;40438;52.992;18.604;2023-03-01T08:30:04;15.77;;;7.63;;
54539;SDS011;40438;52.992;18.604;2023-03-01T08:32:34;15.93;;;7.45;;
54539;SDS011;40438;52.992;18.604;2023-03-01T08:35:01;13.88;;;7.30;;
54539;SDS011;40438;52.992;18.604;2023-03-01T08:37:27;12.23;;;6.75;;
54539;SDS011;40438;52.992;18.604;2023-03-01T08:39:52;15.73;;;7.38;;
54539;SDS011;40438;52.992;18.604;2023-03-01T08:42:18;17.85;;;8.25;;
54539;SDS011;40438;52.992;18.604;2023-03-01T08:44:45;15.88;;;7.40;;
54539;SDS011;40438;52.992;18.604;2023-03-01T08:47:11;19.23;;;8.15;;
54539;SDS011;40438;52.992;18.604;2023-03-01T08:49:37;13.95;;;7.05;;
54539;SDS011;40438;52.992;18.604;2023-03-01T08:52:02;17.25;;;7.45;;
54539;SDS011;40438;52.992;18.604;2023-03-01T08:54:28;15.23;;;6.85;;
54539;SDS011;40438;52.992;18.604;2023-03-01T08:56:54;21.58;;;6.55;;
54539;SDS011;40438;52.992;18.604;2023-03-01T08:59:20;13.88;;;7.30;;
54539;SDS011;40438;52.992;18.604;2023-03-01T09:01:47;13.45;;;7.25;;
54539;SDS011;40438;52.992;18.604;2023-03-01T09:04:14;15.88;;;7.15;;
54539;SDS011;40438;52.992;18.604;2023-03-01T09:06:40;14.35;;;7.32;;
54539;SDS011;40438;52.992;18.604;2023-03-01T09:09:06;20.15;;;6.75;;
54539;SDS011;40438;52.992;18.604;2023-03-01T09:11:36;15.50;;;6.93;;
54539;SDS011;40438;52.992;18.604;2023-03-01T09:14:04;16.75;;;6.63;;
54539;SDS011;40438;52.992;18.604;2023-03-01T09:16:30;14.75;;;7.00;;
54539;SDS011;40438;52.992;18.604;2023-03-01T09:18:57;16.45;;;7.13;;
54539;SDS011;40438;52.992;18.604;2023-03-01T09:21:23;20.60;;;6.85;;
54539;SDS011;40438;52.992;18.604;2023-03-01T09:23:49;13.15;;;6.90;;
54539;SDS011;40438;52.992;18.604;2023-03-01T09:26:15;13.90;;;6.80;;
54539;SDS011;40438;52.992;18.604;2023-03-01T09:28:43;14.65;;;6.57;;
54539;SDS011;40438;52.992;18.604;2023-03-01T09:31:08;22.13;;;8.00;;
54539;SDS011;40438;52.992;18.604;2023-03-01T09:33:34;18.67;;;7.03;;
54539;SDS011;40438;52.992;18.604;2023-03-01T09:36:02;17.33;;;6.53;;
54539;SDS011;40438;52.992;18.604;2023-03-01T09:38:29;12.45;;;6.85;;
54539;SDS011;40438;52.992;18.604;2023-03-01T09:40:55;11.65;;;6.65;;
54539;SDS011;40438;52.992;18.604;2023-03-01T09:43:23;15.25;;;6.40;;
54539;SDS011;40438;52.992;18.604;2023-03-01T09:45:53;12.23;;;6.85;;
54539;SDS011;40438;52.992;18.604;2023-03-01T09:48:21;11.27;;;6.40;;
54539;SDS011;40438;52.992;18.604;2023-03-01T09:50:51;14.88;;;5.13;;
54539;SDS011;40438;52.992;18.604;2023-03-01T09:53:19;10.45;;;5.75;;
54539;SDS011;40438;52.992;18.604;2023-03-01T09:55:48;13.05;;;6.13;;
54539;SDS011;40438;52.992;18.604;2023-03-01T10:01:06;13.30;;;6.57;;
54539;SDS011;40438;52.992;18.604;2023-03-01T10:03:49;12.38;;;6.63;;
54539;SDS011;40438;52.992;18.604;2023-03-01T10:06:27;19.15;;;11.32;;
54539;SDS011;40438;52.992;18.604;2023-03-01T10:08:56;31.65;;;14.18;;
54539;SDS011;40438;52.992;18.604;2023-03-01T10:11:24;27.05;;;12.57;;
54539;SDS011;40438;52.992;18.604;2023-03-01T10:13:58;34.63;;;16.60;;
54539;SDS011;40438;52.992;18.604;2023-03-01T10:16:33;34.05;;;17.60;;
54539;SDS011;40438;52.992;18.604;2023-03-01T10:19:05;33.92;;;16.80;;
54539;SDS011;40438;52.992;18.604;2023-03-01T10:21:37;37.97;;;17.58;;
54539;SDS011;40438;52.992;18.604;2023-03-01T10:24:12;33.03;;;16.67;;
54539;SDS011;40438;52.992;18.604;2023-03-01T10:26:43;33.72;;;17.20;;
54539;SDS011;40438;52.992;18.604;2023-03-01T10:29:13;32.22;;;17.40;;
54539;SDS011;40438;52.992;18.604;2023-03-01T10:31:41;36.10;;;16.35;;
54539;SDS011;40438;52.992;18.604;2023-03-01T10:34:13;33.13;;;15.38;;
54539;SDS011;40438;52.992;18.604;2023-03-01T10:36:40;31.25;;;16.35;;
54539;SDS011;40438;52.992;18.604;2023-03-01T10:39:13;31.98;;;15.80;;
54539;SDS011;40438;52.992;18.604;2023-03-01T10:41:57;33.55;;;15.18;;
54539;SDS011;40438;52.992;18.604;2023-03-01T10:44:40;38.33;;;16.13;;
54539;SDS011;40438;52.992;18.604;2023-03-01T10:47:15;29.83;;;15.80;;
54539;SDS011;40438;52.992;18.604;2023-03-01T10:52:42;32.95;;;14.80;;
54539;SDS011;40438;52.992;18.604;2023-03-01T10:55:25;31.92;;;14.98;;
54539;SDS011;40438;52.992;18.604;2023-03-01T10:58:05;35.60;;;14.65;;
54539;SDS011;40438;52.992;18.604;2023-03-01T11:00:33;26.42;;;14.18;;
54539;SDS011;40438;52.992;18.604;2023-03-01T11:03:11;21.35;;;11.30;;
54539;SDS011;40438;52.992;18.604;2023-03-01T11:05:40;25.02;;;12.40;;
54539;SDS011;40438;52.992;18.604;2023-03-01T11:08:33;21.38;;;12.43;;
54539;SDS011;40438;52.992;18.604;2023-03-01T11:11:07;25.83;;;11.93;;
54539;SDS011;40438;52.992;18.604;2023-03-01T11:13:47;22.15;;;11.50;;
54539;SDS011;40438;52.992;18.604;2023-03-01T11:16:17;20.67;;;11.05;;
54539;SDS011;40438;52.992;18.604;2023-03-01T11:18:55;23.30;;;11.25;;
54539;SDS011;40438;52.992;18.604;2023-03-01T11:21:22;22.27;;;10.95;;
54539;SDS011;40438;52.992;18.604;2023-03-01T11:23:51;21.65;;;11.20;;
54539;SDS011;40438;52.992;18.604;2023-03-01T11:26:18;28.80;;;11.90;;
54539;SDS011;40438;52.992;18.604;2023-03-01T11:28:47;19.77;;;10.43;;
54539;SDS011;40438;52.992;18.604;2023-03-01T11:31:19;21.55;;;10.75;;
54539;SDS011;40438;52.992;18.604;2023-03-01T11:33:46;32.72;;;11.05;;
54539;SDS011;40438;52.992;18.604;2023-03-01T11:36:17;20.88;;;10.93;;
54539;SDS011;40438;52.992;18.604;2023-03-01T11:38:49;24.23;;;10.15;;
54539;SDS011;40438;52.992;18.604;2023-03-01T11:41:16;13.55;;;7.15;;
54539;SDS011;40438;52.992;18.604;2023-03-01T11:43:47;11.15;;;6.47;;
54539;SDS011;40438;52.992;18.604;2023-03-01T11:46:32;12.18;;;6.40;;
54539;SDS011;40438;52.992;18.604;2023-03-01T11:49:18;13.25;;;6.97;;
54539;SDS011;40438;52.992;18.604;2023-03-01T11:52:00;12.73;;;5.63;;
54539;SDS011;40438;52.992;18.604;2023-03-01T11:54:38;10.35;;;5.20;;
54539;SDS011;40438;52.992;18.604;2023-03-01T11:57:18;11.70;;;4.93;;
54539;SDS011;40438;52.992;18.604;2023-03-01T11:59:59;8.43;;;4.65;;
54539;SDS011;40438;52.992;18.604;2023-03-01T12:10:57;6.20;;;3.42;;
54539;SDS011;40438;52.992;18.604;2023-03-01T12:16:40;12.65;;;3.80;;
54539;SDS011;40438;52.992;18.604;2023-03-01T12:19:27;9.55;;;3.80;;
54539;SDS011;40438;52.992;18.604;2023-03-01T12:22:17;5.75;;;3.28;;
54539;SDS011;40438;52.992;18.604;2023-03-01T12:25:04;7.38;;;3.33;;
54539;SDS011;40438;52.992;18.604;2023-03-01T12:27:45;9.77;;;3.60;;
54539;SDS011;40438;52.992;18.604;2023-03-01T12:30:42;11.55;;;3.17;;
54539;SDS011;40438;52.992;18.604;2023-03-01T12:33:22;7.90;;;3.33;;
54539;SDS011;40438;52.992;18.604;2023-03-01T12:38:59;6.30;;;3.15;;
54539;SDS011;40438;52.992;18.604;2023-03-01T12:41:40;5.78;;;3.25;;
54539;SDS011;40438;52.992;18.604;2023-03-01T12:44:13;6.57;;;3.65;;
54539;SDS011;40438;52.992;18.604;2023-03-01T12:46:56;5.15;;;3.15;;
54539;SDS011;40438;52.992;18.604;2023-03-01T12:49:33;9.70;;;3.20;;
54539;SDS011;40438;52.992;18.604;2023-03-01T12:52:03;6.68;;;3.05;;
54539;SDS011;40438;52.992;18.604;2023-03-01T12:54:36;7.13;;;3.35;;
54539;SDS011;40438;52.992;18.604;2023-03-01T12:57:03;6.18;;;2.67;;
54539;SDS011;40438;52.992;18.604;2023-03-01T12:59:38;6.72;;;3.05;;
54539;SDS011;40438;52.992;18.604;2023-03-01T13:02:13;8.57;;;2.97;;
54539;SDS011;40438;52.992;18.604;2023-03-01T13:04:52;6.35;;;3.13;;
54539;SDS011;40438;52.992;18.604;2023-03-01T13:07:27;5.63;;;2.45;;
54539;SDS011;40438;52.992;18.604;2023-03-01T13:10:01;8.18;;;3.42;;
54539;SDS011;40438;52.992;18.604;2023-03-01T13:12:44;15.65;;;3.22;;
54539;SDS011;40438;52.992;18.604;2023-03-01T13:15:24;5.68;;;2.85;;
54539;SDS011;40438;52.992;18.604;2023-03-01T13:17:54;5.05;;;2.85;;
54539;SDS011;40438;52.992;18.604;2023-03-01T13:20:22;4.97;;;2.58;;
54539;SDS011;40438;52.992;18.604;2023-03-01T13:22:59;8.15;;;2.70;;
54539;SDS011;40438;52.992;18.604;2023-03-01T13:25:27;5.97;;;2.85;;
54539;SDS011;40438;52.992;18.604;2023-03-01T13:27:52;13.13;;;3.33;;
54539;SDS011;40438;52.992;18.604;2023-03-01T13:30:58;6.78;;;2.90;;
54539;SDS011;40438;52.992;18.604;2023-03-01T13:33:39;6.30;;;3.10;;
54539;SDS011;40438;52.992;18.604;2023-03-01T13:36:06;7.20;;;2.70;;
54539;SDS011;40438;52.992;18.604;2023-03-01T13:38:37;7.40;;;3.00;;
54539;SDS011;40438;52.992;18.604;2023-03-01T13:41:11;5.82;;;2.47;;
54539;SDS011;40438;52.992;18.604;2023-03-01T13:43:37;11.93;;;2.97;;
54539;SDS011;40438;52.992;18.604;2023-03-01T13:46:11;7.35;;;3.08;;
54539;SDS011;40438;52.992;18.604;2023-03-01T13:48:42;10.05;;;2.90;;
54539;SDS011;40438;52.992;18.604;2023-03-01T13:51:10;7.07;;;2.83;;
54539;SDS011;40438;52.992;18.604;2023-03-01T13:53:38;7.30;;;2.83;;
54539;SDS011;40438;52.992;18.604;2023-03-01T13:56:07;4.22;;;2.80;;
54539;SDS011;40438;52.992;18.604;2023-03-01T13:58:47;5.38;;;2.53;;
54539;SDS011;40438;52.992;18.604;2023-03-01T14:01:23;9.52;;;2.53;;
54539;SDS011;40438;52.992;18.604;2023-03-01T14:03:50;10.07;;;2.92;;
54539;SDS011;40438;52.992;18.604;2023-03-01T14:06:18;10.10;;;2.42;;
54539;SDS011;40438;52.992;18.604;2023-03-01T14:08:46;8.38;;;2.38;;
54539;SDS011;40438;52.992;18.604;2023-03-01T14:14:21;7.70;;;2.15;;
54539;SDS011;40438;52.992;18.604;2023-03-01T14:17:14;5.75;;;2.75;;
54539;SDS011;40438;52.992;18.604;2023-03-01T14:19:48;4.78;;;2.47;;
54539;SDS011;40438;52.992;18.604;2023-03-01T14:24:48;7.35;;;2.30;;
54539;SDS011;40438;52.992;18.604;2023-03-01T14:27:17;3.90;;;2.50;;
54539;SDS011;40438;52.992;18.604;2023-03-01T14:29:43;4.95;;;2.53;;
54539;SDS011;40438;52.992;18.604;2023-03-01T14:32:20;5.40;;;2.65;;
54539;SDS011;40438;52.992;18.604;2023-03-01T14:34:49;9.63;;;2.63;;
54539;SDS011;40438;52.992;18.604;2023-03-01T14:37:17;4.47;;;2.10;;
54539;SDS011;40438;52.992;18.604;2023-03-01T14:39:45;5.00;;;2.72;;
54539;SDS011;40438;52.992;18.604;2023-03-01T14:42:11;3.88;;;2.13;;
54539;SDS011;40438;52.992;18.604;2023-03-01T14:44:40;5.30;;;2.17;;
54539;SDS011;40438;52.992;18.604;2023-03-01T14:47:10;4.43;;;2.50;;
54539;SDS011;40438;52.992;18.604;2023-03-01T14:49:39;3.53;;;2.17;;
54539;SDS011;40438;52.992;18.604;2023-03-01T14:52:05;4.93;;;3.03;;
54539;SDS011;40438;52.992;18.604;2023-03-01T14:54:35;7.68;;;2.50;;
54539;SDS011;40438;52.992;18.604;2023-03-01T14:57:12;6.70;;;2.20;;